sensor_id;sensor_type;location;lat;lon;timestamp;temperature;humidity
14053;DHT22;7101;51.600;7.310;2022-10-16T00:01:38;13.30;99.90
14053;DHT22;7101;51.600;7.310;2022-10-16T00:04:08;13.30;99.90
14053;DHT22;7101;51.600;7.310;2022-10-16T00:06:35;13.20;99.90
14053;DHT22;7101;51.600;7.310;2022-10-16T00:09:02;13.10;99.90
14053;DHT22;7101;51.600;7.310;2022-10-16T00:11:32;13.10;99.90
14053;DHT22;7101;51.600;7.310;2022-10-16T00:14:03;13.00;99.90
14053;DHT22;7101;51.600;7.310;2022-10-16T00:16:31;12.90;99.90
14053;DHT22;7101;51.600;7.310;2022-10-16T00:18:58;12.90;99.90
14053;DHT22;7101;51.600;7.310;2022-10-16T00:21:28;12.80;99.90
14053;DHT22;7101;51.600;7.310;2022-10-16T00:23:57;12.70;99.90
14053;DHT22;7101;51.600;7.310;2022-10-16T00:26:25;12.60;99.90
14053;DHT22;7101;51.600;7.310;2022-10-16T00:28:54;12.60;99.90
14053;DHT22;7101;51.600;7.310;2022-10-16T00:31:21;12.50;99.90
14053;DHT22;7101;51.600;7.310;2022-10-16T00:33:49;12.60;99.90
14053;DHT22;7101;51.600;7.310;2022-10-16T00:36:18;12.50;99.90
14053;DHT22;7101;51.600;7.310;2022-10-16T00:38:45;12.50;99.90
14053;DHT22;7101;51.600;7.310;2022-10-16T00:41:15;12.50;99.90
14053;DHT22;7101;51.600;7.310;2022-10-16T00:43:43;12.50;99.90
14053;DHT22;7101;51.600;7.310;2022-10-16T00:46:16;12.50;99.90
14053;DHT22;7101;51.600;7.310;2022-10-16T00:48:48;12.50;99.90
14053;DHT22;7101;51.600;7.310;2022-10-16T00:51:18;12.50;99.90
14053;DHT22;7101;51.600;7.310;2022-10-16T00:53:46;12.50;99.90
14053;DHT22;7101;51.600;7.310;2022-10-16T00:56:13;12.50;99.90
14053;DHT22;7101;51.600;7.310;2022-10-16T00:58:40;12.50;99.90
14053;DHT22;7101;51.600;7.310;2022-10-16T01:01:07;12.40;99.90
14053;DHT22;7101;51.600;7.310;2022-10-16T01:03:38;12.50;99.90
14053;DHT22;7101;51.600;7.310;2022-10-16T01:06:30;12.40;99.90
14053;DHT22;7101;51.600;7.310;2022-10-16T01:09:11;12.40;99.90
14053;DHT22;7101;51.600;7.310;2022-10-16T01:11:45;12.40;99.90
14053;DHT22;7101;51.600;7.310;2022-10-16T01:14:19;12.30;99.90
14053;DHT22;7101;51.600;7.310;2022-10-16T01:16:52;12.30;99.90
14053;DHT22;7101;51.600;7.310;2022-10-16T01:19:38;12.20;99.90
14053;DHT22;7101;51.600;7.310;2022-10-16T01:22:11;12.20;99.90
14053;DHT22;7101;51.600;7.310;2022-10-16T01:24:40;12.20;99.90
14053;DHT22;7101;51.600;7.310;2022-10-16T01:27:15;12.30;99.90
14053;DHT22;7101;51.600;7.310;2022-10-16T01:29:51;12.30;99.90
14053;DHT22;7101;51.600;7.310;2022-10-16T01:32:28;12.30;99.90
14053;DHT22;7101;51.600;7.310;2022-10-16T01:35:00;12.40;99.90
14053;DHT22;7101;51.600;7.310;2022-10-16T01:37:33;12.50;99.90
14053;DHT22;7101;51.600;7.310;2022-10-16T01:40:05;12.50;99.90
14053;DHT22;7101;51.600;7.310;2022-10-16T01:42:36;12.50;99.90
14053;DHT22;7101;51.600;7.310;2022-10-16T01:45:06;12.50;99.90
14053;DHT22;7101;51.600;7.310;2022-10-16T01:47:37;12.50;99.90
14053;DHT22;7101;51.600;7.310;2022-10-16T01:50:08;12.50;99.90
14053;DHT22;7101;51.600;7.310;2022-10-16T01:52:40;12.60;99.90
14053;DHT22;7101;51.600;7.310;2022-10-16T01:55:12;12.50;99.90
14053;DHT22;7101;51.600;7.310;2022-10-16T01:57:45;12.50;99.90
14053;DHT22;7101;51.600;7.310;2022-10-16T02:00:16;12.50;99.90
14053;DHT22;7101;51.600;7.310;2022-10-16T02:02:46;12.40;99.90
14053;DHT22;7101;51.600;7.310;2022-10-16T02:05:20;12.40;99.90
14053;DHT22;7101;51.600;7.310;2022-10-16T02:07:55;12.50;99.90
14053;DHT22;7101;51.600;7.310;2022-10-16T02:10:24;12.50;99.90
14053;DHT22;7101;51.600;7.310;2022-10-16T02:12:57;12.50;99.90
14053;DHT22;7101;51.600;7.310;2022-10-16T02:15:25;12.60;99.90
14053;DHT22;7101;51.600;7.310;2022-10-16T02:17:52;12.50;99.90
14053;DHT22;7101;51.600;7.310;2022-10-16T02:20:22;12.50;99.90
14053;DHT22;7101;51.600;7.310;2022-10-16T02:22:52;12.40;99.90
14053;DHT22;7101;51.600;7.310;2022-10-16T02:25:24;12.40;99.90
14053;DHT22;7101;51.600;7.310;2022-10-16T02:28:00;12.40;99.90
14053;DHT22;7101;51.600;7.310;2022-10-16T02:30:32;12.50;99.90
14053;DHT22;7101;51.600;7.310;2022-10-16T02:33:01;12.70;99.90
14053;DHT22;7101;51.600;7.310;2022-10-16T02:35:31;12.70;99.90
14053;DHT22;7101;51.600;7.310;2022-10-16T02:37:59;12.80;99.90
14053;DHT22;7101;51.600;7.310;2022-10-16T02:40:27;12.90;99.90
14053;DHT22;7101;51.600;7.310;2022-10-16T02:42:56;12.90;99.90
14053;DHT22;7101;51.600;7.310;2022-10-16T02:45:24;12.90;99.90
14053;DHT22;7101;51.600;7.310;2022-10-16T02:47:51;12.90;99.90
14053;DHT22;7101;51.600;7.310;2022-10-16T02:50:18;13.00;99.90
14053;DHT22;7101;51.600;7.310;2022-10-16T02:52:45;13.10;99.90
14053;DHT22;7101;51.600;7.310;2022-10-16T02:55:15;13.10;99.90
14053;DHT22;7101;51.600;7.310;2022-10-16T02:57:43;13.20;99.90
14053;DHT22;7101;51.600;7.310;2022-10-16T03:00:15;13.20;99.90
14053;DHT22;7101;51.600;7.310;2022-10-16T03:02:44;13.30;99.90
14053;DHT22;7101;51.600;7.310;2022-10-16T03:05:11;13.20;99.90
14053;DHT22;7101;51.600;7.310;2022-10-16T03:07:38;13.20;99.90
14053;DHT22;7101;51.600;7.310;2022-10-16T03:10:06;13.10;99.90
14053;DHT22;7101;51.600;7.310;2022-10-16T03:12:33;13.20;99.90
14053;DHT22;7101;51.600;7.310;2022-10-16T03:15:00;13.20;99.90
14053;DHT22;7101;51.600;7.310;2022-10-16T03:17:29;13.30;99.90
14053;DHT22;7101;51.600;7.310;2022-10-16T03:19:56;13.30;99.90
14053;DHT22;7101;51.600;7.310;2022-10-16T03:22:23;13.30;99.90
14053;DHT22;7101;51.600;7.310;2022-10-16T03:24:50;13.30;99.90
14053;DHT22;7101;51.600;7.310;2022-10-16T03:27:17;13.30;99.90
14053;DHT22;7101;51.600;7.310;2022-10-16T03:29:45;13.30;99.90
14053;DHT22;7101;51.600;7.310;2022-10-16T03:32:12;13.30;99.90
14053;DHT22;7101;51.600;7.310;2022-10-16T03:34:41;13.30;99.90
14053;DHT22;7101;51.600;7.310;2022-10-16T03:37:08;13.30;99.90
14053;DHT22;7101;51.600;7.310;2022-10-16T03:39:41;13.30;99.90
14053;DHT22;7101;51.600;7.310;2022-10-16T03:42:08;13.30;99.90
14053;DHT22;7101;51.600;7.310;2022-10-16T03:44:35;13.20;99.90
14053;DHT22;7101;51.600;7.310;2022-10-16T03:47:02;13.20;99.90
14053;DHT22;7101;51.600;7.310;2022-10-16T03:49:29;13.20;99.90
14053;DHT22;7101;51.600;7.310;2022-10-16T03:51:58;13.20;99.90
14053;DHT22;7101;51.600;7.310;2022-10-16T03:54:24;13.10;99.90
14053;DHT22;7101;51.600;7.310;2022-10-16T03:56:51;13.10;99.90
14053;DHT22;7101;51.600;7.310;2022-10-16T03:59:19;13.10;99.90
14053;DHT22;7101;51.600;7.310;2022-10-16T04:01:46;13.10;99.90
14053;DHT22;7101;51.600;7.310;2022-10-16T04:04:13;13.00;99.90
14053;DHT22;7101;51.600;7.310;2022-10-16T04:06:40;13.00;99.90
14053;DHT22;7101;51.600;7.310;2022-10-16T04:09:08;13.00;99.90
14053;DHT22;7101;51.600;7.310;2022-10-16T04:11:36;13.10;99.90
14053;DHT22;7101;51.600;7.310;2022-10-16T04:14:03;13.00;99.90
14053;DHT22;7101;51.600;7.310;2022-10-16T04:16:33;12.90;99.90
14053;DHT22;7101;51.600;7.310;2022-10-16T04:19:00;12.90;99.90
14053;DHT22;7101;51.600;7.310;2022-10-16T04:21:32;13.00;99.90
14053;DHT22;7101;51.600;7.310;2022-10-16T04:24:01;13.00;99.90
14053;DHT22;7101;51.600;7.310;2022-10-16T04:26:35;13.00;99.90
14053;DHT22;7101;51.600;7.310;2022-10-16T04:29:02;12.90;99.90
14053;DHT22;7101;51.600;7.310;2022-10-16T04:31:29;13.00;99.90
14053;DHT22;7101;51.600;7.310;2022-10-16T04:33:56;13.00;99.90
14053;DHT22;7101;51.600;7.310;2022-10-16T04:36:25;13.00;99.90
14053;DHT22;7101;51.600;7.310;2022-10-16T04:38:52;13.10;99.90
14053;DHT22;7101;51.600;7.310;2022-10-16T04:41:19;13.00;99.90
14053;DHT22;7101;51.600;7.310;2022-10-16T04:43:51;13.00;99.90
14053;DHT22;7101;51.600;7.310;2022-10-16T04:46:18;13.00;99.90
14053;DHT22;7101;51.600;7.310;2022-10-16T04:48:45;13.00;99.90
14053;DHT22;7101;51.600;7.310;2022-10-16T04:51:12;13.00;99.90
14053;DHT22;7101;51.600;7.310;2022-10-16T04:53:39;13.00;99.90
14053;DHT22;7101;51.600;7.310;2022-10-16T04:56:06;12.90;99.90
14053;DHT22;7101;51.600;7.310;2022-10-16T04:58:33;12.90;99.90
14053;DHT22;7101;51.600;7.310;2022-10-16T05:01:01;12.80;99.90
14053;DHT22;7101;51.600;7.310;2022-10-16T05:03:28;12.90;99.90
14053;DHT22;7101;51.600;7.310;2022-10-16T05:05:55;12.90;99.90
14053;DHT22;7101;51.600;7.310;2022-10-16T05:08:22;12.90;99.90
14053;DHT22;7101;51.600;7.310;2022-10-16T05:10:49;12.90;99.90
14053;DHT22;7101;51.600;7.310;2022-10-16T05:13:16;12.90;99.90
14053;DHT22;7101;51.600;7.310;2022-10-16T05:15:46;12.90;99.90
14053;DHT22;7101;51.600;7.310;2022-10-16T05:18:15;13.00;99.90
14053;DHT22;7101;51.600;7.310;2022-10-16T05:20:42;13.00;99.90
14053;DHT22;7101;51.600;7.310;2022-10-16T05:23:09;13.00;99.90
14053;DHT22;7101;51.600;7.310;2022-10-16T05:25:37;13.00;99.90
14053;DHT22;7101;51.600;7.310;2022-10-16T05:28:04;13.10;99.90
14053;DHT22;7101;51.600;7.310;2022-10-16T05:30:31;13.10;99.90
14053;DHT22;7101;51.600;7.310;2022-10-16T05:32:57;13.10;99.90
14053;DHT22;7101;51.600;7.310;2022-10-16T05:35:26;13.20;99.90
14053;DHT22;7101;51.600;7.310;2022-10-16T05:37:53;13.20;99.90
14053;DHT22;7101;51.600;7.310;2022-10-16T05:40:21;13.20;99.90
14053;DHT22;7101;51.600;7.310;2022-10-16T05:42:48;13.20;99.90
14053;DHT22;7101;51.600;7.310;2022-10-16T05:45:18;13.20;99.90
14053;DHT22;7101;51.600;7.310;2022-10-16T05:47:45;13.20;99.90
14053;DHT22;7101;51.600;7.310;2022-10-16T05:50:13;13.20;99.90
14053;DHT22;7101;51.600;7.310;2022-10-16T05:52:42;13.20;99.90
14053;DHT22;7101;51.600;7.310;2022-10-16T05:55:09;13.20;99.90
14053;DHT22;7101;51.600;7.310;2022-10-16T05:57:36;13.20;99.90
14053;DHT22;7101;51.600;7.310;2022-10-16T06:00:05;13.20;99.90
14053;DHT22;7101;51.600;7.310;2022-10-16T06:02:34;13.30;99.90
14053;DHT22;7101;51.600;7.310;2022-10-16T06:05:01;13.20;99.90
14053;DHT22;7101;51.600;7.310;2022-10-16T06:07:28;13.20;99.90
14053;DHT22;7101;51.600;7.310;2022-10-16T06:09:57;13.20;99.90
14053;DHT22;7101;51.600;7.310;2022-10-16T06:12:24;13.30;99.90
14053;DHT22;7101;51.600;7.310;2022-10-16T06:14:51;13.30;99.90
14053;DHT22;7101;51.600;7.310;2022-10-16T06:17:18;13.30;99.90
14053;DHT22;7101;51.600;7.310;2022-10-16T06:19:45;13.30;99.90
14053;DHT22;7101;51.600;7.310;2022-10-16T06:22:12;13.20;99.90
14053;DHT22;7101;51.600;7.310;2022-10-16T06:24:39;13.20;99.90
14053;DHT22;7101;51.600;7.310;2022-10-16T06:27:07;13.20;99.90
14053;DHT22;7101;51.600;7.310;2022-10-16T06:29:35;13.30;99.90
14053;DHT22;7101;51.600;7.310;2022-10-16T06:32:02;13.30;99.90
14053;DHT22;7101;51.600;7.310;2022-10-16T06:34:30;13.40;99.90
14053;DHT22;7101;51.600;7.310;2022-10-16T06:36:59;13.40;99.90
14053;DHT22;7101;51.600;7.310;2022-10-16T06:39:31;13.50;99.90
14053;DHT22;7101;51.600;7.310;2022-10-16T06:41:59;13.60;99.90
14053;DHT22;7101;51.600;7.310;2022-10-16T06:44:28;13.60;99.90
14053;DHT22;7101;51.600;7.310;2022-10-16T06:46:57;13.70;99.90
14053;DHT22;7101;51.600;7.310;2022-10-16T06:49:26;14.00;99.90
14053;DHT22;7101;51.600;7.310;2022-10-16T06:51:54;14.30;99.90
14053;DHT22;7101;51.600;7.310;2022-10-16T06:54:21;14.30;99.90
14053;DHT22;7101;51.600;7.310;2022-10-16T06:56:48;14.30;99.90
14053;DHT22;7101;51.600;7.310;2022-10-16T06:59:14;14.30;99.90
14053;DHT22;7101;51.600;7.310;2022-10-16T07:01:43;14.30;99.90
14053;DHT22;7101;51.600;7.310;2022-10-16T07:04:10;14.40;99.90
14053;DHT22;7101;51.600;7.310;2022-10-16T07:06:37;14.40;99.90
14053;DHT22;7101;51.600;7.310;2022-10-16T07:09:07;14.40;99.90
14053;DHT22;7101;51.600;7.310;2022-10-16T07:11:34;14.40;99.90
14053;DHT22;7101;51.600;7.310;2022-10-16T07:14:01;14.30;99.90
14053;DHT22;7101;51.600;7.310;2022-10-16T07:16:31;14.20;99.90
14053;DHT22;7101;51.600;7.310;2022-10-16T07:19:03;14.30;99.90
14053;DHT22;7101;51.600;7.310;2022-10-16T07:21:32;14.50;99.90
14053;DHT22;7101;51.600;7.310;2022-10-16T07:24:01;15.00;99.90
14053;DHT22;7101;51.600;7.310;2022-10-16T07:26:30;15.20;99.90
14053;DHT22;7101;51.600;7.310;2022-10-16T07:29:02;15.00;99.90
14053;DHT22;7101;51.600;7.310;2022-10-16T07:31:29;14.70;99.90
14053;DHT22;7101;51.600;7.310;2022-10-16T07:33:58;14.40;99.90
14053;DHT22;7101;51.600;7.310;2022-10-16T07:36:30;14.20;99.90
14053;DHT22;7101;51.600;7.310;2022-10-16T07:38:57;14.10;99.90
14053;DHT22;7101;51.600;7.310;2022-10-16T07:41:24;14.40;99.90
14053;DHT22;7101;51.600;7.310;2022-10-16T07:43:52;14.60;99.90
14053;DHT22;7101;51.600;7.310;2022-10-16T07:46:21;14.60;99.90
14053;DHT22;7101;51.600;7.310;2022-10-16T07:48:48;14.50;99.90
14053;DHT22;7101;51.600;7.310;2022-10-16T07:51:17;14.40;99.90
14053;DHT22;7101;51.600;7.310;2022-10-16T07:53:46;14.40;99.90
14053;DHT22;7101;51.600;7.310;2022-10-16T07:56:18;14.30;99.90
14053;DHT22;7101;51.600;7.310;2022-10-16T07:58:45;14.40;99.90
14053;DHT22;7101;51.600;7.310;2022-10-16T08:01:14;14.50;99.90
14053;DHT22;7101;51.600;7.310;2022-10-16T08:03:42;14.70;99.90
14053;DHT22;7101;51.600;7.310;2022-10-16T08:06:11;15.10;99.90
14053;DHT22;7101;51.600;7.310;2022-10-16T08:08:38;15.30;99.90
14053;DHT22;7101;51.600;7.310;2022-10-16T08:11:06;15.50;99.90
14053;DHT22;7101;51.600;7.310;2022-10-16T08:13:35;15.70;82.20
14053;DHT22;7101;51.600;7.310;2022-10-16T08:16:03;15.80;63.00
14053;DHT22;7101;51.600;7.310;2022-10-16T08:18:33;15.90;66.00
14053;DHT22;7101;51.600;7.310;2022-10-16T08:21:01;16.00;47.30
14053;DHT22;7101;51.600;7.310;2022-10-16T08:23:29;16.00;46.20
14053;DHT22;7101;51.600;7.310;2022-10-16T08:26:01;16.20;44.60
14053;DHT22;7101;51.600;7.310;2022-10-16T08:28:31;16.20;22.30
14053;DHT22;7101;51.600;7.310;2022-10-16T08:31:13;16.30;1.00
14053;DHT22;7101;51.600;7.310;2022-10-16T08:33:42;16.40;1.00
14053;DHT22;7101;51.600;7.310;2022-10-16T08:36:11;16.30;1.00
14053;DHT22;7101;51.600;7.310;2022-10-16T08:38:38;16.40;1.00
14053;DHT22;7101;51.600;7.310;2022-10-16T08:41:22;16.40;1.00
14053;DHT22;7101;51.600;7.310;2022-10-16T08:44:10;16.60;1.00
14053;DHT22;7101;51.600;7.310;2022-10-16T08:46:49;16.50;1.00
14053;DHT22;7101;51.600;7.310;2022-10-16T08:49:19;16.60;1.00
14053;DHT22;7101;51.600;7.310;2022-10-16T08:51:46;16.70;1.00
14053;DHT22;7101;51.600;7.310;2022-10-16T08:54:23;16.70;1.00
14053;DHT22;7101;51.600;7.310;2022-10-16T08:56:54;16.80;1.00
14053;DHT22;7101;51.600;7.310;2022-10-16T08:59:23;16.90;1.00
14053;DHT22;7101;51.600;7.310;2022-10-16T09:01:52;17.00;1.00
14053;DHT22;7101;51.600;7.310;2022-10-16T09:04:43;17.10;1.00
14053;DHT22;7101;51.600;7.310;2022-10-16T09:07:18;17.10;1.00
14053;DHT22;7101;51.600;7.310;2022-10-16T09:09:58;17.00;1.00
14053;DHT22;7101;51.600;7.310;2022-10-16T09:12:31;16.90;1.00
14053;DHT22;7101;51.600;7.310;2022-10-16T09:15:13;17.00;1.00
14053;DHT22;7101;51.600;7.310;2022-10-16T09:17:52;17.10;99.90
14053;DHT22;7101;51.600;7.310;2022-10-16T09:20:29;17.00;1.00
14053;DHT22;7101;51.600;7.310;2022-10-16T09:23:14;17.20;1.00
14053;DHT22;7101;51.600;7.310;2022-10-16T09:25:46;17.30;99.90
14053;DHT22;7101;51.600;7.310;2022-10-16T09:28:16;17.20;99.90
14053;DHT22;7101;51.600;7.310;2022-10-16T09:30:45;17.00;99.90
14053;DHT22;7101;51.600;7.310;2022-10-16T09:33:14;16.90;99.90
14053;DHT22;7101;51.600;7.310;2022-10-16T09:35:44;16.90;99.90
14053;DHT22;7101;51.600;7.310;2022-10-16T09:38:22;16.90;1.00
14053;DHT22;7101;51.600;7.310;2022-10-16T09:40:50;17.20;99.90
14053;DHT22;7101;51.600;7.310;2022-10-16T09:43:21;17.20;99.90
14053;DHT22;7101;51.600;7.310;2022-10-16T09:46:22;17.60;99.90
14053;DHT22;7101;51.600;7.310;2022-10-16T09:48:52;17.70;99.90
14053;DHT22;7101;51.600;7.310;2022-10-16T09:51:22;17.80;99.90
14053;DHT22;7101;51.600;7.310;2022-10-16T09:53:54;17.90;99.90
14053;DHT22;7101;51.600;7.310;2022-10-16T09:56:25;17.80;99.90
14053;DHT22;7101;51.600;7.310;2022-10-16T09:58:54;17.70;99.90
14053;DHT22;7101;51.600;7.310;2022-10-16T10:01:25;17.70;99.90
14053;DHT22;7101;51.600;7.310;2022-10-16T10:03:56;17.60;99.90
14053;DHT22;7101;51.600;7.310;2022-10-16T10:06:28;17.40;99.90
14053;DHT22;7101;51.600;7.310;2022-10-16T10:08:58;17.40;99.90
14053;DHT22;7101;51.600;7.310;2022-10-16T10:11:47;17.40;99.90
14053;DHT22;7101;51.600;7.310;2022-10-16T10:14:24;17.60;99.90
14053;DHT22;7101;51.600;7.310;2022-10-16T10:17:09;17.60;99.90
14053;DHT22;7101;51.600;7.310;2022-10-16T10:19:41;17.50;99.90
14053;DHT22;7101;51.600;7.310;2022-10-16T10:22:27;17.50;99.90
14053;DHT22;7101;51.600;7.310;2022-10-16T10:25:12;17.50;99.90
14053;DHT22;7101;51.600;7.310;2022-10-16T10:27:53;17.40;99.90
14053;DHT22;7101;51.600;7.310;2022-10-16T10:30:26;17.60;99.90
14053;DHT22;7101;51.600;7.310;2022-10-16T10:33:17;17.70;99.90
14053;DHT22;7101;51.600;7.310;2022-10-16T10:35:54;17.70;99.90
14053;DHT22;7101;51.600;7.310;2022-10-16T10:38:31;17.80;26.90
14053;DHT22;7101;51.600;7.310;2022-10-16T10:41:18;17.90;99.90
14053;DHT22;7101;51.600;7.310;2022-10-16T10:43:56;18.00;94.80
14053;DHT22;7101;51.600;7.310;2022-10-16T10:46:34;18.00;1.00
14053;DHT22;7101;51.600;7.310;2022-10-16T10:49:17;18.20;1.00
14053;DHT22;7101;51.600;7.310;2022-10-16T10:51:53;18.30;1.00
14053;DHT22;7101;51.600;7.310;2022-10-16T10:54:30;18.10;36.70
14053;DHT22;7101;51.600;7.310;2022-10-16T10:57:02;18.00;1.00
14053;DHT22;7101;51.600;7.310;2022-10-16T10:59:46;18.10;1.00
14053;DHT22;7101;51.600;7.310;2022-10-16T11:02:19;18.10;1.00
14053;DHT22;7101;51.600;7.310;2022-10-16T11:05:31;18.40;1.00
14053;DHT22;7101;51.600;7.310;2022-10-16T11:08:17;18.90;19.70
14053;DHT22;7101;51.600;7.310;2022-10-16T11:10:51;19.10;1.00
14053;DHT22;7101;51.600;7.310;2022-10-16T11:13:29;19.10;1.00
14053;DHT22;7101;51.600;7.310;2022-10-16T11:15:59;18.90;1.00
14053;DHT22;7101;51.600;7.310;2022-10-16T11:18:33;18.60;1.00
14053;DHT22;7101;51.600;7.310;2022-10-16T11:21:10;18.40;1.00
14053;DHT22;7101;51.600;7.310;2022-10-16T11:23:42;18.30;1.00
14053;DHT22;7101;51.600;7.310;2022-10-16T11:26:14;18.20;1.00
14053;DHT22;7101;51.600;7.310;2022-10-16T11:28:45;18.20;1.00
14053;DHT22;7101;51.600;7.310;2022-10-16T11:31:18;18.10;1.00
14053;DHT22;7101;51.600;7.310;2022-10-16T11:33:51;18.10;1.70
14053;DHT22;7101;51.600;7.310;2022-10-16T11:36:23;18.00;1.00
14053;DHT22;7101;51.600;7.310;2022-10-16T11:38:58;18.10;1.00
14053;DHT22;7101;51.600;7.310;2022-10-16T11:41:29;18.10;1.00
14053;DHT22;7101;51.600;7.310;2022-10-16T11:44:19;18.20;1.00
14053;DHT22;7101;51.600;7.310;2022-10-16T11:46:51;18.40;1.00
14053;DHT22;7101;51.600;7.310;2022-10-16T11:49:22;18.40;1.00
14053;DHT22;7101;51.600;7.310;2022-10-16T11:51:59;18.60;1.00
14053;DHT22;7101;51.600;7.310;2022-10-16T11:54:32;18.70;1.00
14053;DHT22;7101;51.600;7.310;2022-10-16T11:57:07;18.60;1.00
14053;DHT22;7101;51.600;7.310;2022-10-16T11:59:40;18.60;1.00
14053;DHT22;7101;51.600;7.310;2022-10-16T12:02:26;18.60;1.00
14053;DHT22;7101;51.600;7.310;2022-10-16T12:05:05;18.70;1.00
14053;DHT22;7101;51.600;7.310;2022-10-16T12:07:36;18.80;1.00
14053;DHT22;7101;51.600;7.310;2022-10-16T12:10:16;19.10;99.90
14053;DHT22;7101;51.600;7.310;2022-10-16T12:12:45;19.10;99.90
14053;DHT22;7101;51.600;7.310;2022-10-16T12:15:22;18.90;1.00
14053;DHT22;7101;51.600;7.310;2022-10-16T12:17:49;19.00;1.00
14053;DHT22;7101;51.600;7.310;2022-10-16T12:20:27;19.20;99.90
14053;DHT22;7101;51.600;7.310;2022-10-16T12:22:59;19.70;99.90
14053;DHT22;7101;51.600;7.310;2022-10-16T12:25:29;19.70;99.90
14053;DHT22;7101;51.600;7.310;2022-10-16T12:28:02;19.50;1.00
14053;DHT22;7101;51.600;7.310;2022-10-16T12:30:31;19.40;1.00
14053;DHT22;7101;51.600;7.310;2022-10-16T12:33:00;19.30;1.00
14053;DHT22;7101;51.600;7.310;2022-10-16T12:35:31;19.40;1.00
14053;DHT22;7101;51.600;7.310;2022-10-16T12:38:08;19.50;1.00
14053;DHT22;7101;51.600;7.310;2022-10-16T12:40:39;19.50;99.90
14053;DHT22;7101;51.600;7.310;2022-10-16T12:43:12;19.30;99.90
14053;DHT22;7101;51.600;7.310;2022-10-16T12:45:59;19.10;99.90
14053;DHT22;7101;51.600;7.310;2022-10-16T12:48:29;19.10;1.00
14053;DHT22;7101;51.600;7.310;2022-10-16T12:50:56;19.20;99.90
14053;DHT22;7101;51.600;7.310;2022-10-16T12:53:26;19.10;99.90
14053;DHT22;7101;51.600;7.310;2022-10-16T12:56:03;19.20;5.80
14053;DHT22;7101;51.600;7.310;2022-10-16T12:58:47;19.30;99.90
14053;DHT22;7101;51.600;7.310;2022-10-16T13:01:28;19.30;1.00
14053;DHT22;7101;51.600;7.310;2022-10-16T13:07:19;19.60;99.90
14053;DHT22;7101;51.600;7.310;2022-10-16T13:10:03;19.40;99.90
14053;DHT22;7101;51.600;7.310;2022-10-16T13:12:54;19.10;91.30
14053;DHT22;7101;51.600;7.310;2022-10-16T13:15:30;18.90;99.90
14053;DHT22;7101;51.600;7.310;2022-10-16T13:18:05;18.70;25.50
14053;DHT22;7101;51.600;7.310;2022-10-16T13:23:29;19.00;1.00
14053;DHT22;7101;51.600;7.310;2022-10-16T13:26:09;19.10;1.00
14053;DHT22;7101;51.600;7.310;2022-10-16T13:28:41;19.10;1.00
14053;DHT22;7101;51.600;7.310;2022-10-16T13:31:15;18.90;38.70
14053;DHT22;7101;51.600;7.310;2022-10-16T13:33:46;18.70;99.90
14053;DHT22;7101;51.600;7.310;2022-10-16T13:36:19;18.60;1.00
14053;DHT22;7101;51.600;7.310;2022-10-16T13:38:47;18.70;99.90
14053;DHT22;7101;51.600;7.310;2022-10-16T13:41:16;18.70;1.00
14053;DHT22;7101;51.600;7.310;2022-10-16T13:43:45;18.80;1.00
14053;DHT22;7101;51.600;7.310;2022-10-16T13:46:15;18.90;99.90
14053;DHT22;7101;51.600;7.310;2022-10-16T13:48:44;19.10;99.90
14053;DHT22;7101;51.600;7.310;2022-10-16T13:51:13;19.20;1.00
14053;DHT22;7101;51.600;7.310;2022-10-16T13:53:41;19.20;99.90
14053;DHT22;7101;51.600;7.310;2022-10-16T13:56:11;19.20;1.00
14053;DHT22;7101;51.600;7.310;2022-10-16T13:58:40;19.30;1.00
14053;DHT22;7101;51.600;7.310;2022-10-16T14:01:16;19.30;99.90
14053;DHT22;7101;51.600;7.310;2022-10-16T14:03:44;19.30;99.90
14053;DHT22;7101;51.600;7.310;2022-10-16T14:06:14;19.30;1.00
14053;DHT22;7101;51.600;7.310;2022-10-16T14:08:45;19.20;99.90
14053;DHT22;7101;51.600;7.310;2022-10-16T14:11:21;19.20;1.00
14053;DHT22;7101;51.600;7.310;2022-10-16T14:13:51;19.20;99.90
14053;DHT22;7101;51.600;7.310;2022-10-16T14:16:20;19.20;99.90
14053;DHT22;7101;51.600;7.310;2022-10-16T14:18:57;19.30;99.90
14053;DHT22;7101;51.600;7.310;2022-10-16T14:21:26;19.40;1.00
14053;DHT22;7101;51.600;7.310;2022-10-16T14:23:54;19.50;99.90
14053;DHT22;7101;51.600;7.310;2022-10-16T14:26:24;19.50;1.00
14053;DHT22;7101;51.600;7.310;2022-10-16T14:29:09;19.60;1.00
14053;DHT22;7101;51.600;7.310;2022-10-16T14:31:37;19.70;99.90
14053;DHT22;7101;51.600;7.310;2022-10-16T14:34:23;19.60;1.00
14053;DHT22;7101;51.600;7.310;2022-10-16T14:36:51;19.60;99.90
14053;DHT22;7101;51.600;7.310;2022-10-16T14:39:20;19.40;1.00
14053;DHT22;7101;51.600;7.310;2022-10-16T14:41:50;19.10;99.90
14053;DHT22;7101;51.600;7.310;2022-10-16T14:44:26;18.90;1.00
14053;DHT22;7101;51.600;7.310;2022-10-16T14:46:54;18.70;99.90
14053;DHT22;7101;51.600;7.310;2022-10-16T14:49:22;18.40;1.00
14053;DHT22;7101;51.600;7.310;2022-10-16T14:51:50;18.30;1.00
14053;DHT22;7101;51.600;7.310;2022-10-16T14:54:18;18.20;1.00
14053;DHT22;7101;51.600;7.310;2022-10-16T14:56:47;18.30;1.00
14053;DHT22;7101;51.600;7.310;2022-10-16T14:59:19;18.40;1.00
14053;DHT22;7101;51.600;7.310;2022-10-16T15:01:47;18.60;99.90
14053;DHT22;7101;51.600;7.310;2022-10-16T15:04:15;18.70;1.00
14053;DHT22;7101;51.600;7.310;2022-10-16T15:06:43;19.00;99.90
14053;DHT22;7101;51.600;7.310;2022-10-16T15:09:10;19.40;1.00
14053;DHT22;7101;51.600;7.310;2022-10-16T15:11:37;19.50;1.00
14053;DHT22;7101;51.600;7.310;2022-10-16T15:14:05;19.50;99.90
14053;DHT22;7101;51.600;7.310;2022-10-16T15:16:36;19.40;28.00
14053;DHT22;7101;51.600;7.310;2022-10-16T15:19:03;19.20;1.00
14053;DHT22;7101;51.600;7.310;2022-10-16T15:21:31;19.00;94.60
14053;DHT22;7101;51.600;7.310;2022-10-16T15:23:59;18.90;99.90
14053;DHT22;7101;51.600;7.310;2022-10-16T15:26:28;18.80;80.70
14053;DHT22;7101;51.600;7.310;2022-10-16T15:28:55;18.70;99.90
14053;DHT22;7101;51.600;7.310;2022-10-16T15:31:23;18.70;1.00
14053;DHT22;7101;51.600;7.310;2022-10-16T15:33:52;18.60;1.00
14053;DHT22;7101;51.600;7.310;2022-10-16T15:36:27;18.40;1.00
14053;DHT22;7101;51.600;7.310;2022-10-16T15:38:54;18.20;1.00
14053;DHT22;7101;51.600;7.310;2022-10-16T15:41:22;18.10;1.00
14053;DHT22;7101;51.600;7.310;2022-10-16T15:43:49;18.10;1.00
14053;DHT22;7101;51.600;7.310;2022-10-16T15:46:19;18.20;1.00
14053;DHT22;7101;51.600;7.310;2022-10-16T15:48:46;18.20;1.00
14053;DHT22;7101;51.600;7.310;2022-10-16T15:51:15;18.10;1.00
14053;DHT22;7101;51.600;7.310;2022-10-16T15:53:42;18.10;1.00
14053;DHT22;7101;51.600;7.310;2022-10-16T15:56:12;18.10;1.00
14053;DHT22;7101;51.600;7.310;2022-10-16T15:58:39;18.10;1.00
14053;DHT22;7101;51.600;7.310;2022-10-16T16:01:06;18.00;1.00
14053;DHT22;7101;51.600;7.310;2022-10-16T16:03:35;17.90;1.00
14053;DHT22;7101;51.600;7.310;2022-10-16T16:06:04;17.90;1.00
14053;DHT22;7101;51.600;7.310;2022-10-16T16:08:34;17.80;32.30
14053;DHT22;7101;51.600;7.310;2022-10-16T16:11:02;17.70;1.00
14053;DHT22;7101;51.600;7.310;2022-10-16T16:13:31;17.70;1.00
14053;DHT22;7101;51.600;7.310;2022-10-16T16:15:58;17.70;61.00
14053;DHT22;7101;51.600;7.310;2022-10-16T16:18:25;17.70;99.90
14053;DHT22;7101;51.600;7.310;2022-10-16T16:20:54;17.60;17.90